createdAt,value
2023-03-23T15:58:54.606Z,99609.91
2023-03-23T16:01:30.077Z,99609.29
2023-03-23T16:04:12.480Z,99606.54
2023-03-23T16:06:45.533Z,99613.59
2023-03-23T16:09:20.125Z,99612.23
2023-03-23T16:11:54.371Z,99613.54
2023-03-23T16:14:23.569Z,99613.91
2023-03-23T16:16:55.795Z,99618.26
2023-03-23T16:19:25.964Z,99620.35
2023-03-23T16:21:57.148Z,99625.60
2023-03-23T16:24:28.878Z,99623.40
2023-03-23T16:27:03.222Z,99625.36
2023-03-23T16:29:54.291Z,99623.27
2023-03-23T16:32:26.174Z,99624.92
2023-03-23T16:34:58.173Z,99625.05
2023-03-23T16:37:33.489Z,99626.02
2023-03-23T16:40:06.553Z,99627.49
2023-03-23T16:42:36.333Z,99625.27
2023-03-23T16:45:06.460Z,99621.65
2023-03-23T16:47:42.600Z,99619.64
2023-03-23T16:50:16.040Z,99623.65
2023-03-23T16:52:50.360Z,99626.03
2023-03-23T16:55:18.634Z,99620.31
2023-03-23T16:57:54.187Z,99624.61
2023-03-23T17:00:29.114Z,99622.05
2023-03-23T17:02:57.875Z,99622.59
2023-03-23T17:05:28.239Z,99622.17
2023-03-23T17:07:56.715Z,99621.36
2023-03-23T17:10:30.092Z,99625.97
2023-03-23T17:13:00.432Z,99622.40
2023-03-23T17:15:28.913Z,99619.52
2023-03-23T17:18:04.290Z,99623.55
2023-03-23T17:20:34.790Z,99623.48
2023-03-23T17:23:03.163Z,99621.25
2023-03-23T17:25:34.819Z,99619.49
2023-03-23T17:28:10.430Z,99618.73
2023-03-23T17:30:44.148Z,99616.77
2023-03-23T17:33:19.006Z,99617.69
2023-03-23T17:35:47.686Z,99615.27
2023-03-23T17:38:19.060Z,99609.77
2023-03-23T17:40:47.420Z,99609.26
2023-03-23T17:43:22.563Z,99607.27
2023-03-23T17:45:52.288Z,99606.41
2023-03-23T17:48:22.289Z,99610.42
2023-03-23T17:50:54.964Z,99610.98
2023-03-23T17:53:28.258Z,99608.78
2023-03-23T17:56:00.740Z,99607.11
2023-03-23T17:58:33.208Z,99607.48
2023-03-23T18:01:04.839Z,99607.23
2023-03-23T18:03:40.822Z,99606.17
2023-03-23T18:06:11.966Z,99605.63
2023-03-23T18:08:40.349Z,99608.30
2023-03-23T18:11:10.566Z,99611.04
2023-03-23T18:13:46.115Z,99616.36
2023-03-23T18:16:21.184Z,99614.65
2023-03-23T18:18:51.884Z,99617.31
2023-03-23T18:21:21.918Z,99616.86
2023-03-23T18:24:00.165Z,99616.89
2023-03-23T18:26:30.233Z,99617.11
2023-03-23T18:28:58.506Z,99614.27
2023-03-23T18:31:29.104Z,99614.36
2023-03-23T18:33:59.167Z,99611.81
2023-03-23T18:36:27.750Z,99614.02
2023-03-23T18:39:01.146Z,99612.31
2023-03-23T18:41:33.308Z,99616.21
2023-03-23T18:44:02.813Z,99613.23
2023-03-23T18:46:32.895Z,99611.98
2023-03-23T18:49:04.773Z,99603.49
2023-03-23T18:51:38.292Z,99599.05
2023-03-23T18:54:10.568Z,99601.29
2023-03-23T18:56:39.801Z,99598.68
2023-03-23T18:59:12.442Z,99608.25
2023-03-23T19:01:44.653Z,99607.66
2023-03-23T19:04:13.810Z,99612.67
2023-03-23T19:06:42.299Z,99611.55
2023-03-23T19:09:12.112Z,99604.71
2023-03-23T19:11:50.741Z,99602.86
2023-03-23T19:14:22.586Z,99603.23
2023-03-23T19:16:54.144Z,99603.51
2023-03-23T19:19:25.032Z,99603.08
2023-03-23T19:21:55.249Z,99605.13
2023-03-23T19:24:23.480Z,99598.20
2023-03-23T19:27:00.190Z,99596.86
2023-03-23T19:29:29.494Z,99598.14
2023-03-23T19:32:03.169Z,99595.38
2023-03-23T19:34:38.097Z,99595.73
2023-03-23T19:37:11.454Z,99597.15
2023-03-23T19:39:48.028Z,99599.38
2023-03-23T19:42:18.560Z,99595.77
2023-03-23T19:44:47.487Z,99595.83
2023-03-23T19:47:16.490Z,99596.80
2023-03-23T19:49:51.558Z,99596.89
2023-03-23T19:52:21.220Z,99593.38
2023-03-23T19:54:53.253Z,99592.15
2023-03-23T19:57:22.589Z,99594.92
2023-03-23T19:59:55.128Z,99593.20
2023-03-23T20:02:29.201Z,99593.42
2023-03-23T20:04:59.579Z,99588.58
2023-03-23T20:08:46.111Z,99587.14
2023-03-23T20:11:26.688Z,99584.52
2023-03-23T20:14:00.607Z,99580.20
2023-03-23T20:16:33.269Z,99578.90
2023-03-23T20:19:01.672Z,99576.50
2023-03-23T20:21:33.765Z,99570.75
2023-03-23T20:24:02.189Z,99571.61
2023-03-23T20:26:37.597Z,99571.02
2023-03-23T20:29:10.590Z,99568.93
2023-03-23T20:31:43.511Z,99566.80
2023-03-23T20:34:28.714Z,99567.92
2023-03-23T20:37:04.432Z,99565.28
2023-03-23T20:39:46.740Z,99564.48
2023-03-23T20:42:15.837Z,99562.33
2023-03-23T20:44:49.949Z,99565.00
2023-03-23T20:47:20.991Z,99560.95
2023-03-23T20:49:57.670Z,99558.39
2023-03-23T20:52:28.714Z,99556.08
2023-03-23T20:55:02.829Z,99553.98
2023-03-23T20:57:32.632Z,99554.40
2023-03-23T21:00:02.771Z,99552.95
2023-03-23T21:02:36.355Z,99554.60
2023-03-23T21:05:18.458Z,99556.86
2023-03-23T21:07:55.240Z,99558.73
2023-03-23T21:10:27.920Z,99556.66
2023-03-23T21:13:01.040Z,99555.06
2023-03-23T21:15:34.090Z,99553.46
2023-03-23T21:18:04.915Z,99553.59
2023-03-23T21:20:38.044Z,99551.88
2023-03-23T21:23:07.936Z,99556.40
2023-03-23T21:25:42.352Z,99551.77
2023-03-23T21:28:17.282Z,99557.48
2023-03-23T21:30:46.453Z,99556.94
2023-03-23T21:33:16.190Z,99558.21
2023-03-23T21:35:47.259Z,99557.59
2023-03-23T21:38:27.283Z,99560.58
2023-03-23T21:41:02.887Z,99555.98
2023-03-23T21:43:33.462Z,99555.36
2023-03-23T21:46:08.357Z,99553.45
2023-03-23T21:48:42.514Z,99555.10
2023-03-23T21:51:16.211Z,99559.39
2023-03-23T21:53:55.721Z,99554.31
2023-03-23T21:56:25.440Z,99551.66
2023-03-23T21:59:02.770Z,99548.94
2023-03-23T22:01:37.147Z,99547.63
2023-03-23T22:04:13.857Z,99546.05
2023-03-23T22:06:46.831Z,99545.22
2023-03-23T22:09:20.842Z,99541.34
2023-03-23T22:11:49.028Z,99541.02
2023-03-23T22:14:26.618Z,99540.70
2023-03-23T22:16:55.093Z,99537.06
2023-03-23T22:19:29.106Z,99543.99
2023-03-23T22:22:06.187Z,99543.04
2023-03-23T22:24:38.667Z,99544.39
2023-03-23T22:27:07.452Z,99547.61
2023-03-23T22:29:37.998Z,99545.96
2023-03-23T22:32:11.392Z,99545.64
2023-03-23T22:34:40.890Z,99546.87
2023-03-23T22:37:11.012Z,99548.09
2023-03-23T22:39:46.677Z,99551.39
2023-03-23T22:42:19.034Z,99553.15
2023-03-23T22:44:51.719Z,99550.59
2023-03-23T22:47:21.632Z,99552.88
2023-03-23T22:49:51.653Z,99550.44
2023-03-23T22:52:20.336Z,99548.39
2023-03-23T22:54:54.045Z,99547.45
2023-03-23T22:57:26.925Z,99549.74
2023-03-23T23:00:00.433Z,99545.45
2023-03-23T23:02:29.150Z,99544.10
2023-03-23T23:05:04.969Z,99534.95
2023-03-23T23:07:33.241Z,99525.91
2023-03-23T23:10:08.264Z,99528.24
2023-03-23T23:12:36.761Z,99520.38
2023-03-23T23:15:08.992Z,99522.02
2023-03-23T23:17:42.329Z,99526.77
2023-03-23T23:20:14.696Z,99525.33
2023-03-23T23:22:45.190Z,99523.83
2023-03-23T23:25:21.592Z,99525.42
2023-03-23T23:27:53.260Z,99528.38
2023-03-23T23:30:28.394Z,99532.13
2023-03-23T23:33:03.149Z,99531.75
2023-03-23T23:35:36.917Z,99530.79
2023-03-23T23:38:06.017Z,99520.63
2023-03-23T23:40:36.749Z,99519.35
2023-03-23T23:43:09.133Z,99508.40
2023-03-23T23:45:41.932Z,99508.29
2023-03-23T23:48:19.195Z,99506.69
2023-03-23T23:50:52.486Z,99504.19
2023-03-23T23:53:23.388Z,99501.21
2023-03-23T23:55:56.616Z,99496.04
2023-03-23T23:58:32.471Z,99498.27
